sensor_id;sensor_type;location;lat;lon;timestamp;P1;durP1;ratioP1;P2;durP2;ratioP2
7076;SDS011;3579;48.956;9.154;2023-09-19T00:01:34;1.20;;;1.10;;
7076;SDS011;3579;48.956;9.154;2023-09-19T00:04:01;1.23;;;1.13;;
7076;SDS011;3579;48.956;9.154;2023-09-19T00:06:28;1.27;;;1.10;;
7076;SDS011;3579;48.956;9.154;2023-09-19T00:08:57;1.50;;;1.30;;
7076;SDS011;3579;48.956;9.154;2023-09-19T00:11:26;1.50;;;1.13;;
7076;SDS011;3579;48.956;9.154;2023-09-19T00:13:53;1.13;;;1.03;;
7076;SDS011;3579;48.956;9.154;2023-09-19T00:16:19;1.27;;;1.17;;
7076;SDS011;3579;48.956;9.154;2023-09-19T00:18:45;1.20;;;1.10;;
7076;SDS011;3579;48.956;9.154;2023-09-19T00:21:12;1.30;;;1.20;;
7076;SDS011;3579;48.956;9.154;2023-09-19T00:23:38;1.33;;;1.00;;
7076;SDS011;3579;48.956;9.154;2023-09-19T00:26:06;1.37;;;1.27;;
7076;SDS011;3579;48.956;9.154;2023-09-19T00:28:32;1.10;;;1.00;;
7076;SDS011;3579;48.956;9.154;2023-09-19T00:30:59;1.27;;;1.10;;
7076;SDS011;3579;48.956;9.154;2023-09-19T00:33:27;2.03;;;1.20;;
7076;SDS011;3579;48.956;9.154;2023-09-19T00:35:57;1.20;;;1.10;;
7076;SDS011;3579;48.956;9.154;2023-09-19T00:38:23;1.20;;;1.10;;
7076;SDS011;3579;48.956;9.154;2023-09-19T00:40:52;1.63;;;1.10;;
7076;SDS011;3579;48.956;9.154;2023-09-19T00:43:19;1.50;;;1.17;;
7076;SDS011;3579;48.956;9.154;2023-09-19T00:45:48;1.43;;;1.20;;
7076;SDS011;3579;48.956;9.154;2023-09-19T00:48:16;1.20;;;1.10;;
7076;SDS011;3579;48.956;9.154;2023-09-19T00:50:44;1.60;;;1.00;;
7076;SDS011;3579;48.956;9.154;2023-09-19T00:53:15;1.20;;;1.10;;
7076;SDS011;3579;48.956;9.154;2023-09-19T00:55:48;1.30;;;1.20;;
7076;SDS011;3579;48.956;9.154;2023-09-19T00:58:16;1.20;;;1.10;;
7076;SDS011;3579;48.956;9.154;2023-09-19T01:00:43;1.23;;;1.13;;
7076;SDS011;3579;48.956;9.154;2023-09-19T01:03:12;1.20;;;1.10;;
7076;SDS011;3579;48.956;9.154;2023-09-19T01:05:38;1.20;;;1.10;;
7076;SDS011;3579;48.956;9.154;2023-09-19T01:08:05;1.03;;;0.93;;
7076;SDS011;3579;48.956;9.154;2023-09-19T01:10:32;1.20;;;1.00;;
7076;SDS011;3579;48.956;9.154;2023-09-19T01:15:54;1.20;;;1.10;;
7076;SDS011;3579;48.956;9.154;2023-09-19T01:24:54;1.10;;;1.00;;
7076;SDS011;3579;48.956;9.154;2023-09-19T01:30:32;0.97;;;0.97;;
7076;SDS011;3579;48.956;9.154;2023-09-19T01:33:01;0.90;;;0.90;;
7076;SDS011;3579;48.956;9.154;2023-09-19T01:35:29;1.20;;;1.10;;
7076;SDS011;3579;48.956;9.154;2023-09-19T01:37:55;1.10;;;1.00;;
7076;SDS011;3579;48.956;9.154;2023-09-19T01:40:21;1.20;;;1.10;;
7076;SDS011;3579;48.956;9.154;2023-09-19T01:42:51;1.60;;;1.10;;
7076;SDS011;3579;48.956;9.154;2023-09-19T01:45:33;1.13;;;1.03;;
7076;SDS011;3579;48.956;9.154;2023-09-19T01:51:20;1.20;;;1.10;;
7076;SDS011;3579;48.956;9.154;2023-09-19T01:54:11;1.13;;;1.00;;
7076;SDS011;3579;48.956;9.154;2023-09-19T01:56:49;1.00;;;0.90;;
7076;SDS011;3579;48.956;9.154;2023-09-19T01:59:22;1.17;;;1.00;;
7076;SDS011;3579;48.956;9.154;2023-09-19T02:01:53;1.43;;;1.00;;
7076;SDS011;3579;48.956;9.154;2023-09-19T02:04:21;1.07;;;0.90;;
7076;SDS011;3579;48.956;9.154;2023-09-19T02:06:47;1.10;;;1.00;;
7076;SDS011;3579;48.956;9.154;2023-09-19T02:09:14;1.23;;;1.10;;
7076;SDS011;3579;48.956;9.154;2023-09-19T02:11:40;1.20;;;1.10;;
7076;SDS011;3579;48.956;9.154;2023-09-19T02:14:07;1.10;;;1.00;;
7076;SDS011;3579;48.956;9.154;2023-09-19T02:16:34;1.10;;;1.00;;
7076;SDS011;3579;48.956;9.154;2023-09-19T02:19:00;1.27;;;1.17;;
7076;SDS011;3579;48.956;9.154;2023-09-19T02:21:30;1.10;;;1.00;;
7076;SDS011;3579;48.956;9.154;2023-09-19T02:23:57;1.13;;;1.00;;
7076;SDS011;3579;48.956;9.154;2023-09-19T02:26:24;1.10;;;1.00;;
7076;SDS011;3579;48.956;9.154;2023-09-19T02:28:50;0.90;;;0.90;;
7076;SDS011;3579;48.956;9.154;2023-09-19T02:31:16;1.03;;;0.93;;
7076;SDS011;3579;48.956;9.154;2023-09-19T02:33:42;1.00;;;0.90;;
7076;SDS011;3579;48.956;9.154;2023-09-19T02:36:08;1.13;;;1.03;;
7076;SDS011;3579;48.956;9.154;2023-09-19T02:38:35;1.20;;;1.10;;
7076;SDS011;3579;48.956;9.154;2023-09-19T02:41:02;1.10;;;1.00;;
7076;SDS011;3579;48.956;9.154;2023-09-19T02:43:29;1.20;;;1.10;;
7076;SDS011;3579;48.956;9.154;2023-09-19T02:45:55;1.40;;;1.30;;
7076;SDS011;3579;48.956;9.154;2023-09-19T02:48:22;2.20;;;1.00;;
7076;SDS011;3579;48.956;9.154;2023-09-19T02:50:51;1.10;;;1.00;;
7076;SDS011;3579;48.956;9.154;2023-09-19T02:53:18;1.10;;;1.00;;
7076;SDS011;3579;48.956;9.154;2023-09-19T02:55:44;1.20;;;1.10;;
7076;SDS011;3579;48.956;9.154;2023-09-19T02:58:11;1.00;;;1.00;;
7076;SDS011;3579;48.956;9.154;2023-09-19T03:00:39;0.93;;;0.90;;
7076;SDS011;3579;48.956;9.154;2023-09-19T03:03:07;1.17;;;1.07;;
7076;SDS011;3579;48.956;9.154;2023-09-19T03:05:34;0.97;;;0.97;;
7076;SDS011;3579;48.956;9.154;2023-09-19T03:08:00;1.33;;;1.03;;
7076;SDS011;3579;48.956;9.154;2023-09-19T03:10:27;1.10;;;1.00;;
7076;SDS011;3579;48.956;9.154;2023-09-19T03:12:54;1.03;;;0.97;;
7076;SDS011;3579;48.956;9.154;2023-09-19T03:15:20;1.20;;;1.10;;
7076;SDS011;3579;48.956;9.154;2023-09-19T03:17:47;1.20;;;1.10;;
7076;SDS011;3579;48.956;9.154;2023-09-19T03:20:14;1.20;;;1.10;;
7076;SDS011;3579;48.956;9.154;2023-09-19T03:22:44;0.93;;;0.93;;
7076;SDS011;3579;48.956;9.154;2023-09-19T03:25:11;1.10;;;1.00;;
7076;SDS011;3579;48.956;9.154;2023-09-19T03:27:38;1.17;;;1.07;;
7076;SDS011;3579;48.956;9.154;2023-09-19T03:30:05;1.13;;;1.03;;
7076;SDS011;3579;48.956;9.154;2023-09-19T03:32:47;1.10;;;1.00;;
7076;SDS011;3579;48.956;9.154;2023-09-19T03:35:15;0.90;;;0.90;;
7076;SDS011;3579;48.956;9.154;2023-09-19T03:37:42;0.90;;;0.90;;
7076;SDS011;3579;48.956;9.154;2023-09-19T03:40:09;0.90;;;0.90;;
7076;SDS011;3579;48.956;9.154;2023-09-19T03:42:42;1.20;;;1.00;;
7076;SDS011;3579;48.956;9.154;2023-09-19T03:45:08;1.00;;;1.00;;
7076;SDS011;3579;48.956;9.154;2023-09-19T03:47:38;1.10;;;1.00;;
7076;SDS011;3579;48.956;9.154;2023-09-19T03:50:05;1.00;;;1.00;;
7076;SDS011;3579;48.956;9.154;2023-09-19T03:52:36;0.97;;;0.93;;
7076;SDS011;3579;48.956;9.154;2023-09-19T03:55:02;0.90;;;0.90;;
7076;SDS011;3579;48.956;9.154;2023-09-19T03:57:30;1.23;;;1.13;;
7076;SDS011;3579;48.956;9.154;2023-09-19T03:59:56;1.17;;;1.00;;
7076;SDS011;3579;48.956;9.154;2023-09-19T04:02:22;1.00;;;0.90;;
7076;SDS011;3579;48.956;9.154;2023-09-19T04:04:49;1.27;;;1.17;;
7076;SDS011;3579;48.956;9.154;2023-09-19T04:07:18;1.07;;;0.97;;
7076;SDS011;3579;48.956;9.154;2023-09-19T04:09:47;0.90;;;0.90;;
7076;SDS011;3579;48.956;9.154;2023-09-19T04:12:14;1.10;;;1.03;;
7076;SDS011;3579;48.956;9.154;2023-09-19T04:14:43;0.90;;;0.90;;
7076;SDS011;3579;48.956;9.154;2023-09-19T04:17:10;1.20;;;1.10;;
7076;SDS011;3579;48.956;9.154;2023-09-19T04:19:36;1.10;;;1.00;;
7076;SDS011;3579;48.956;9.154;2023-09-19T04:22:02;1.60;;;1.07;;
7076;SDS011;3579;48.956;9.154;2023-09-19T04:24:29;1.00;;;1.00;;
7076;SDS011;3579;48.956;9.154;2023-09-19T04:26:57;1.10;;;1.00;;
7076;SDS011;3579;48.956;9.154;2023-09-19T04:29:24;1.10;;;1.00;;
7076;SDS011;3579;48.956;9.154;2023-09-19T04:31:52;1.17;;;1.07;;
7076;SDS011;3579;48.956;9.154;2023-09-19T04:34:18;1.50;;;1.07;;
7076;SDS011;3579;48.956;9.154;2023-09-19T04:36:44;1.13;;;1.00;;
7076;SDS011;3579;48.956;9.154;2023-09-19T04:39:10;1.20;;;0.90;;
7076;SDS011;3579;48.956;9.154;2023-09-19T04:41:38;1.03;;;0.97;;
7076;SDS011;3579;48.956;9.154;2023-09-19T04:44:06;1.10;;;1.00;;
7076;SDS011;3579;48.956;9.154;2023-09-19T04:49:33;2.67;;;1.03;;
7076;SDS011;3579;48.956;9.154;2023-09-19T04:52:00;1.03;;;0.93;;
7076;SDS011;3579;48.956;9.154;2023-09-19T04:54:26;1.10;;;1.00;;
7076;SDS011;3579;48.956;9.154;2023-09-19T04:56:52;2.43;;;1.30;;
7076;SDS011;3579;48.956;9.154;2023-09-19T04:59:18;3.33;;;1.50;;
7076;SDS011;3579;48.956;9.154;2023-09-19T05:01:44;2.03;;;1.43;;
7076;SDS011;3579;48.956;9.154;2023-09-19T05:04:12;3.17;;;1.53;;
7076;SDS011;3579;48.956;9.154;2023-09-19T05:06:38;2.63;;;1.53;;
7076;SDS011;3579;48.956;9.154;2023-09-19T05:09:04;1.87;;;1.53;;
7076;SDS011;3579;48.956;9.154;2023-09-19T05:11:31;2.07;;;1.33;;
7076;SDS011;3579;48.956;9.154;2023-09-19T05:13:57;1.57;;;1.23;;
7076;SDS011;3579;48.956;9.154;2023-09-19T05:16:28;2.13;;;1.37;;
7076;SDS011;3579;48.956;9.154;2023-09-19T05:18:55;1.73;;;1.30;;
7076;SDS011;3579;48.956;9.154;2023-09-19T05:21:21;3.23;;;1.47;;
7076;SDS011;3579;48.956;9.154;2023-09-19T05:23:48;2.23;;;1.40;;
7076;SDS011;3579;48.956;9.154;2023-09-19T05:26:16;1.60;;;1.30;;
7076;SDS011;3579;48.956;9.154;2023-09-19T05:28:43;3.40;;;1.30;;
7076;SDS011;3579;48.956;9.154;2023-09-19T05:31:09;2.77;;;1.60;;
7076;SDS011;3579;48.956;9.154;2023-09-19T05:33:35;2.70;;;1.40;;
7076;SDS011;3579;48.956;9.154;2023-09-19T05:36:01;1.90;;;1.20;;
7076;SDS011;3579;48.956;9.154;2023-09-19T05:38:28;2.47;;;1.53;;
7076;SDS011;3579;48.956;9.154;2023-09-19T05:40:54;1.67;;;1.30;;
7076;SDS011;3579;48.956;9.154;2023-09-19T05:43:20;2.33;;;1.33;;
7076;SDS011;3579;48.956;9.154;2023-09-19T05:45:46;6.70;;;2.17;;
7076;SDS011;3579;48.956;9.154;2023-09-19T05:48:13;5.50;;;2.27;;
7076;SDS011;3579;48.956;9.154;2023-09-19T05:50:41;3.63;;;2.50;;
7076;SDS011;3579;48.956;9.154;2023-09-19T05:53:08;5.23;;;2.63;;
7076;SDS011;3579;48.956;9.154;2023-09-19T05:55:40;4.20;;;2.10;;
7076;SDS011;3579;48.956;9.154;2023-09-19T05:58:07;4.00;;;2.07;;
7076;SDS011;3579;48.956;9.154;2023-09-19T06:00:35;7.17;;;1.97;;
7076;SDS011;3579;48.956;9.154;2023-09-19T06:03:02;2.90;;;1.40;;
7076;SDS011;3579;48.956;9.154;2023-09-19T06:05:28;2.30;;;1.40;;
7076;SDS011;3579;48.956;9.154;2023-09-19T06:07:57;4.33;;;1.83;;
7076;SDS011;3579;48.956;9.154;2023-09-19T06:10:26;2.07;;;1.60;;
7076;SDS011;3579;48.956;9.154;2023-09-19T06:12:53;3.77;;;1.80;;
7076;SDS011;3579;48.956;9.154;2023-09-19T06:15:20;3.80;;;1.83;;
7076;SDS011;3579;48.956;9.154;2023-09-19T06:17:50;3.57;;;2.00;;
7076;SDS011;3579;48.956;9.154;2023-09-19T06:20:20;3.57;;;1.87;;
7076;SDS011;3579;48.956;9.154;2023-09-19T06:22:48;2.93;;;1.63;;
7076;SDS011;3579;48.956;9.154;2023-09-19T06:25:16;2.43;;;1.80;;
7076;SDS011;3579;48.956;9.154;2023-09-19T06:27:45;3.47;;;1.70;;
7076;SDS011;3579;48.956;9.154;2023-09-19T06:30:12;2.47;;;1.80;;
7076;SDS011;3579;48.956;9.154;2023-09-19T06:32:43;5.07;;;1.83;;
7076;SDS011;3579;48.956;9.154;2023-09-19T06:35:10;5.47;;;1.77;;
7076;SDS011;3579;48.956;9.154;2023-09-19T06:37:40;3.30;;;1.73;;
7076;SDS011;3579;48.956;9.154;2023-09-19T06:40:08;5.30;;;2.10;;
7076;SDS011;3579;48.956;9.154;2023-09-19T06:42:40;6.43;;;1.90;;
7076;SDS011;3579;48.956;9.154;2023-09-19T06:45:13;2.40;;;1.50;;
7076;SDS011;3579;48.956;9.154;2023-09-19T06:47:50;3.83;;;1.90;;
7076;SDS011;3579;48.956;9.154;2023-09-19T06:50:17;4.63;;;1.67;;
7076;SDS011;3579;48.956;9.154;2023-09-19T06:52:45;3.30;;;1.40;;
7076;SDS011;3579;48.956;9.154;2023-09-19T06:55:16;5.20;;;1.70;;
7076;SDS011;3579;48.956;9.154;2023-09-19T06:57:43;4.63;;;1.80;;
7076;SDS011;3579;48.956;9.154;2023-09-19T07:00:09;2.90;;;1.67;;
7076;SDS011;3579;48.956;9.154;2023-09-19T07:02:57;4.77;;;1.60;;
7076;SDS011;3579;48.956;9.154;2023-09-19T07:05:32;3.60;;;1.80;;
7076;SDS011;3579;48.956;9.154;2023-09-19T07:08:02;5.90;;;1.40;;
7076;SDS011;3579;48.956;9.154;2023-09-19T07:10:29;3.23;;;1.87;;
7076;SDS011;3579;48.956;9.154;2023-09-19T07:13:03;3.40;;;1.40;;
7076;SDS011;3579;48.956;9.154;2023-09-19T07:15:34;2.80;;;1.50;;
7076;SDS011;3579;48.956;9.154;2023-09-19T07:18:02;3.43;;;1.50;;
7076;SDS011;3579;48.956;9.154;2023-09-19T07:20:28;6.50;;;1.90;;
7076;SDS011;3579;48.956;9.154;2023-09-19T07:22:58;3.67;;;1.70;;
7076;SDS011;3579;48.956;9.154;2023-09-19T07:25:27;1.93;;;1.40;;
7076;SDS011;3579;48.956;9.154;2023-09-19T07:27:57;3.70;;;1.60;;
7076;SDS011;3579;48.956;9.154;2023-09-19T07:30:35;4.13;;;1.70;;
7076;SDS011;3579;48.956;9.154;2023-09-19T07:33:48;4.17;;;1.50;;
7076;SDS011;3579;48.956;9.154;2023-09-19T07:36:14;4.77;;;1.60;;
7076;SDS011;3579;48.956;9.154;2023-09-19T07:38:41;2.53;;;1.50;;
7076;SDS011;3579;48.956;9.154;2023-09-19T07:41:08;2.37;;;1.50;;
7076;SDS011;3579;48.956;9.154;2023-09-19T07:43:35;1.97;;;1.53;;
7076;SDS011;3579;48.956;9.154;2023-09-19T07:46:06;2.43;;;1.50;;
7076;SDS011;3579;48.956;9.154;2023-09-19T07:48:37;4.63;;;1.70;;
7076;SDS011;3579;48.956;9.154;2023-09-19T07:51:05;1.80;;;1.60;;
7076;SDS011;3579;48.956;9.154;2023-09-19T07:53:34;5.80;;;2.17;;
7076;SDS011;3579;48.956;9.154;2023-09-19T07:56:01;2.80;;;1.80;;
7076;SDS011;3579;48.956;9.154;2023-09-19T07:58:32;4.53;;;2.00;;
7076;SDS011;3579;48.956;9.154;2023-09-19T08:01:06;5.83;;;1.80;;
7076;SDS011;3579;48.956;9.154;2023-09-19T08:03:33;5.93;;;1.90;;
7076;SDS011;3579;48.956;9.154;2023-09-19T08:06:01;4.10;;;1.80;;
7076;SDS011;3579;48.956;9.154;2023-09-19T08:08:27;6.57;;;2.20;;
7076;SDS011;3579;48.956;9.154;2023-09-19T08:10:54;4.10;;;1.87;;
7076;SDS011;3579;48.956;9.154;2023-09-19T08:13:24;2.63;;;1.87;;
7076;SDS011;3579;48.956;9.154;2023-09-19T08:15:51;4.43;;;2.03;;
7076;SDS011;3579;48.956;9.154;2023-09-19T08:18:21;4.20;;;2.07;;
7076;SDS011;3579;48.956;9.154;2023-09-19T08:20:52;6.20;;;1.80;;
7076;SDS011;3579;48.956;9.154;2023-09-19T08:23:18;5.80;;;1.87;;
7076;SDS011;3579;48.956;9.154;2023-09-19T08:25:45;4.90;;;1.90;;
7076;SDS011;3579;48.956;9.154;2023-09-19T08:28:12;5.37;;;2.07;;
7076;SDS011;3579;48.956;9.154;2023-09-19T08:30:45;2.37;;;1.80;;
7076;SDS011;3579;48.956;9.154;2023-09-19T08:33:11;3.07;;;1.70;;
7076;SDS011;3579;48.956;9.154;2023-09-19T08:35:41;4.53;;;2.03;;
7076;SDS011;3579;48.956;9.154;2023-09-19T08:38:08;3.43;;;1.80;;
7076;SDS011;3579;48.956;9.154;2023-09-19T08:40:36;3.73;;;1.63;;
7076;SDS011;3579;48.956;9.154;2023-09-19T08:43:07;3.87;;;2.20;;
7076;SDS011;3579;48.956;9.154;2023-09-19T08:45:34;7.13;;;2.30;;
7076;SDS011;3579;48.956;9.154;2023-09-19T08:51:03;3.33;;;1.60;;
7076;SDS011;3579;48.956;9.154;2023-09-19T08:56:12;7.57;;;2.10;;
7076;SDS011;3579;48.956;9.154;2023-09-19T08:58:42;6.27;;;1.80;;
7076;SDS011;3579;48.956;9.154;2023-09-19T09:01:15;3.77;;;1.90;;
7076;SDS011;3579;48.956;9.154;2023-09-19T09:03:42;5.07;;;2.00;;
7076;SDS011;3579;48.956;9.154;2023-09-19T09:06:13;4.23;;;1.70;;
7076;SDS011;3579;48.956;9.154;2023-09-19T09:08:41;5.80;;;1.73;;
7076;SDS011;3579;48.956;9.154;2023-09-19T09:11:08;2.77;;;1.70;;
7076;SDS011;3579;48.956;9.154;2023-09-19T09:13:35;3.90;;;1.77;;
7076;SDS011;3579;48.956;9.154;2023-09-19T09:16:04;3.23;;;2.00;;
7076;SDS011;3579;48.956;9.154;2023-09-19T09:18:30;4.67;;;1.70;;
7076;SDS011;3579;48.956;9.154;2023-09-19T09:20:57;6.60;;;1.80;;
7076;SDS011;3579;48.956;9.154;2023-09-19T09:23:23;4.50;;;2.00;;
7076;SDS011;3579;48.956;9.154;2023-09-19T09:25:54;3.17;;;2.00;;
7076;SDS011;3579;48.956;9.154;2023-09-19T09:28:23;4.30;;;1.97;;
7076;SDS011;3579;48.956;9.154;2023-09-19T09:30:50;2.10;;;1.60;;
7076;SDS011;3579;48.956;9.154;2023-09-19T09:33:18;2.87;;;1.43;;
7076;SDS011;3579;48.956;9.154;2023-09-19T09:35:55;5.77;;;1.50;;
7076;SDS011;3579;48.956;9.154;2023-09-19T09:38:24;5.10;;;1.50;;
7076;SDS011;3579;48.956;9.154;2023-09-19T09:40:53;3.90;;;1.60;;
7076;SDS011;3579;48.956;9.154;2023-09-19T09:43:31;3.20;;;1.50;;
7076;SDS011;3579;48.956;9.154;2023-09-19T09:51:46;4.53;;;1.70;;
7076;SDS011;3579;48.956;9.154;2023-09-19T09:54:25;4.50;;;1.70;;
7076;SDS011;3579;48.956;9.154;2023-09-19T09:57:05;2.97;;;1.67;;
7076;SDS011;3579;48.956;9.154;2023-09-19T09:59:58;5.20;;;1.70;;
7076;SDS011;3579;48.956;9.154;2023-09-19T10:02:42;3.20;;;1.80;;
7076;SDS011;3579;48.956;9.154;2023-09-19T10:07:54;5.27;;;1.70;;
7076;SDS011;3579;48.956;9.154;2023-09-19T10:10:35;7.23;;;1.80;;
7076;SDS011;3579;48.956;9.154;2023-09-19T10:13:19;3.10;;;1.70;;
7076;SDS011;3579;48.956;9.154;2023-09-19T10:15:51;2.37;;;1.50;;
7076;SDS011;3579;48.956;9.154;2023-09-19T10:18:21;4.10;;;1.70;;
7076;SDS011;3579;48.956;9.154;2023-09-19T10:20:48;3.63;;;1.90;;
7076;SDS011;3579;48.956;9.154;2023-09-19T10:23:19;3.43;;;1.53;;
7076;SDS011;3579;48.956;9.154;2023-09-19T10:25:52;3.57;;;1.50;;
7076;SDS011;3579;48.956;9.154;2023-09-19T10:28:19;5.50;;;1.90;;
7076;SDS011;3579;48.956;9.154;2023-09-19T10:30:47;3.30;;;1.70;;
7076;SDS011;3579;48.956;9.154;2023-09-19T10:33:16;2.10;;;1.50;;
7076;SDS011;3579;48.956;9.154;2023-09-19T10:35:46;5.00;;;1.90;;
7076;SDS011;3579;48.956;9.154;2023-09-19T10:38:17;4.80;;;1.70;;
7076;SDS011;3579;48.956;9.154;2023-09-19T10:40:50;5.10;;;1.70;;
7076;SDS011;3579;48.956;9.154;2023-09-19T10:43:26;4.83;;;1.93;;
7076;SDS011;3579;48.956;9.154;2023-09-19T10:45:57;5.57;;;1.83;;
7076;SDS011;3579;48.956;9.154;2023-09-19T10:48:29;4.40;;;1.83;;
7076;SDS011;3579;48.956;9.154;2023-09-19T10:53:59;5.53;;;1.80;;
7076;SDS011;3579;48.956;9.154;2023-09-19T10:56:33;2.47;;;1.67;;
7076;SDS011;3579;48.956;9.154;2023-09-19T10:59:10;2.70;;;1.60;;
7076;SDS011;3579;48.956;9.154;2023-09-19T11:01:46;7.07;;;1.97;;
7076;SDS011;3579;48.956;9.154;2023-09-19T11:09:43;4.33;;;1.70;;
7076;SDS011;3579;48.956;9.154;2023-09-19T11:26:40;2.57;;;1.70;;
7076;SDS011;3579;48.956;9.154;2023-09-19T11:29:28;3.63;;;1.80;;
7076;SDS011;3579;48.956;9.154;2023-09-19T11:32:03;3.63;;;1.90;;
7076;SDS011;3579;48.956;9.154;2023-09-19T11:39:42;11.73;;;2.20;;
7076;SDS011;3579;48.956;9.154;2023-09-19T11:42:46;5.83;;;2.10;;
7076;SDS011;3579;48.956;9.154;2023-09-19T11:48:23;4.57;;;2.00;;
7076;SDS011;3579;48.956;9.154;2023-09-19T11:50:53;6.03;;;1.73;;
7076;SDS011;3579;48.956;9.154;2023-09-19T11:53:21;3.40;;;1.70;;
7076;SDS011;3579;48.956;9.154;2023-09-19T11:55:48;3.07;;;2.00;;
7076;SDS011;3579;48.956;9.154;2023-09-19T11:58:15;4.03;;;2.00;;
7076;SDS011;3579;48.956;9.154;2023-09-19T12:00:44;4.17;;;1.87;;
7076;SDS011;3579;48.956;9.154;2023-09-19T12:03:11;6.97;;;1.80;;
7076;SDS011;3579;48.956;9.154;2023-09-19T12:05:40;3.77;;;2.20;;
7076;SDS011;3579;48.956;9.154;2023-09-19T12:08:09;3.70;;;1.70;;
7076;SDS011;3579;48.956;9.154;2023-09-19T12:10:46;3.10;;;1.80;;
7076;SDS011;3579;48.956;9.154;2023-09-19T12:13:17;2.93;;;1.60;;
7076;SDS011;3579;48.956;9.154;2023-09-19T12:15:46;3.93;;;1.80;;
7076;SDS011;3579;48.956;9.154;2023-09-19T12:18:28;4.47;;;1.80;;
7076;SDS011;3579;48.956;9.154;2023-09-19T12:20:56;3.53;;;1.60;;
7076;SDS011;3579;48.956;9.154;2023-09-19T12:23:23;4.20;;;1.87;;
7076;SDS011;3579;48.956;9.154;2023-09-19T12:25:51;3.20;;;1.70;;
7076;SDS011;3579;48.956;9.154;2023-09-19T12:28:20;4.77;;;1.63;;
7076;SDS011;3579;48.956;9.154;2023-09-19T12:30:47;2.60;;;1.60;;
7076;SDS011;3579;48.956;9.154;2023-09-19T12:33:17;3.37;;;1.80;;
7076;SDS011;3579;48.956;9.154;2023-09-19T12:35:51;2.87;;;1.90;;
7076;SDS011;3579;48.956;9.154;2023-09-19T12:38:25;6.43;;;2.10;;
7076;SDS011;3579;48.956;9.154;2023-09-19T12:40:56;2.37;;;1.60;;
7076;SDS011;3579;48.956;9.154;2023-09-19T12:43:30;5.17;;;1.83;;
7076;SDS011;3579;48.956;9.154;2023-09-19T12:46:02;4.43;;;2.00;;
7076;SDS011;3579;48.956;9.154;2023-09-19T12:48:30;2.73;;;1.93;;
7076;SDS011;3579;48.956;9.154;2023-09-19T12:53:40;2.97;;;1.93;;
7076;SDS011;3579;48.956;9.154;2023-09-19T12:56:15;3.13;;;1.90;;
7076;SDS011;3579;48.956;9.154;2023-09-19T12:58:51;4.47;;;1.80;;
7076;SDS011;3579;48.956;9.154;2023-09-19T13:01:21;3.13;;;1.73;;
7076;SDS011;3579;48.956;9.154;2023-09-19T13:06:45;4.67;;;2.00;;
7076;SDS011;3579;48.956;9.154;2023-09-19T13:09:21;3.13;;;1.90;;
7076;SDS011;3579;48.956;9.154;2023-09-19T13:11:50;3.70;;;1.87;;
7076;SDS011;3579;48.956;9.154;2023-09-19T13:14:29;3.63;;;1.80;;
7076;SDS011;3579;48.956;9.154;2023-09-19T13:17:08;3.60;;;1.90;;
7076;SDS011;3579;48.956;9.154;2023-09-19T13:19:50;3.63;;;2.10;;
7076;SDS011;3579;48.956;9.154;2023-09-19T13:22:36;2.67;;;1.90;;
7076;SDS011;3579;48.956;9.154;2023-09-19T13:25:09;2.97;;;1.80;;
7076;SDS011;3579;48.956;9.154;2023-09-19T13:27:41;2.97;;;1.80;;
7076;SDS011;3579;48.956;9.154;2023-09-19T13:30:08;4.40;;;1.93;;
7076;SDS011;3579;48.956;9.154;2023-09-19T13:32:35;2.03;;;1.77;;
7076;SDS011;3579;48.956;9.154;2023-09-19T13:35:01;3.97;;;2.10;;
7076;SDS011;3579;48.956;9.154;2023-09-19T13:37:27;3.93;;;1.97;;
7076;SDS011;3579;48.956;9.154;2023-09-19T13:39:54;3.13;;;1.80;;
7076;SDS011;3579;48.956;9.154;2023-09-19T13:42:20;2.37;;;1.80;;
7076;SDS011;3579;48.956;9.154;2023-09-19T13:44:47;3.77;;;1.80;;
7076;SDS011;3579;48.956;9.154;2023-09-19T13:47:18;4.47;;;1.63;;
7076;SDS011;3579;48.956;9.154;2023-09-19T13:49:50;3.13;;;1.80;;
7076;SDS011;3579;48.956;9.154;2023-09-19T13:52:18;3.60;;;1.53;;
7076;SDS011;3579;48.956;9.154;2023-09-19T13:54:45;5.27;;;1.80;;
7076;SDS011;3579;48.956;9.154;2023-09-19T13:57:11;4.17;;;1.80;;
7076;SDS011;3579;48.956;9.154;2023-09-19T13:59:37;2.73;;;1.70;;
7076;SDS011;3579;48.956;9.154;2023-09-19T14:02:03;4.17;;;1.90;;
7076;SDS011;3579;48.956;9.154;2023-09-19T14:04:31;6.13;;;1.80;;
7076;SDS011;3579;48.956;9.154;2023-09-19T14:06:57;3.00;;;1.77;;
7076;SDS011;3579;48.956;9.154;2023-09-19T14:09:23;4.23;;;1.83;;
7076;SDS011;3579;48.956;9.154;2023-09-19T14:11:50;3.77;;;2.10;;
7076;SDS011;3579;48.956;9.154;2023-09-19T14:14:18;3.03;;;1.80;;
7076;SDS011;3579;48.956;9.154;2023-09-19T14:16:46;3.37;;;1.90;;
7076;SDS011;3579;48.956;9.154;2023-09-19T14:19:15;4.13;;;1.90;;
7076;SDS011;3579;48.956;9.154;2023-09-19T14:21:42;2.63;;;1.60;;
7076;SDS011;3579;48.956;9.154;2023-09-19T14:24:08;5.00;;;1.80;;
7076;SDS011;3579;48.956;9.154;2023-09-19T14:26:38;6.63;;;1.67;;
7076;SDS011;3579;48.956;9.154;2023-09-19T14:29:04;3.87;;;1.80;;
7076;SDS011;3579;48.956;9.154;2023-09-19T14:31:33;2.10;;;1.60;;
7076;SDS011;3579;48.956;9.154;2023-09-19T14:33:59;2.43;;;1.50;;
7076;SDS011;3579;48.956;9.154;2023-09-19T14:36:26;2.93;;;1.90;;
7076;SDS011;3579;48.956;9.154;2023-09-19T14:38:52;3.47;;;1.53;;
7076;SDS011;3579;48.956;9.154;2023-09-19T14:41:22;3.47;;;1.50;;
7076;SDS011;3579;48.956;9.154;2023-09-19T14:43:51;4.03;;;1.67;;
7076;SDS011;3579;48.956;9.154;2023-09-19T14:46:17;2.50;;;1.80;;
7076;SDS011;3579;48.956;9.154;2023-09-19T14:48:44;4.00;;;1.80;;
7076;SDS011;3579;48.956;9.154;2023-09-19T14:51:13;4.90;;;1.90;;
7076;SDS011;3579;48.956;9.154;2023-09-19T14:53:40;2.30;;;1.70;;
7076;SDS011;3579;48.956;9.154;2023-09-19T14:56:07;2.17;;;1.70;;
7076;SDS011;3579;48.956;9.154;2023-09-19T14:58:34;2.30;;;1.60;;
7076;SDS011;3579;48.956;9.154;2023-09-19T15:01:12;2.23;;;1.63;;
7076;SDS011;3579;48.956;9.154;2023-09-19T15:03:39;2.80;;;1.83;;
7076;SDS011;3579;48.956;9.154;2023-09-19T15:06:07;3.60;;;1.70;;
7076;SDS011;3579;48.956;9.154;2023-09-19T15:08:43;2.47;;;1.60;;
7076;SDS011;3579;48.956;9.154;2023-09-19T15:11:14;3.47;;;1.70;;
7076;SDS011;3579;48.956;9.154;2023-09-19T15:13:44;2.70;;;1.57;;
7076;SDS011;3579;48.956;9.154;2023-09-19T15:16:11;3.13;;;1.70;;
7076;SDS011;3579;48.956;9.154;2023-09-19T15:18:39;2.67;;;1.70;;
7076;SDS011;3579;48.956;9.154;2023-09-19T15:21:07;3.63;;;1.50;;
7076;SDS011;3579;48.956;9.154;2023-09-19T15:23:38;2.80;;;1.77;;
7076;SDS011;3579;48.956;9.154;2023-09-19T15:26:09;4.70;;;2.00;;
7076;SDS011;3579;48.956;9.154;2023-09-19T15:28:37;2.40;;;1.80;;
7076;SDS011;3579;48.956;9.154;2023-09-19T15:31:04;2.53;;;1.50;;
7076;SDS011;3579;48.956;9.154;2023-09-19T15:33:32;2.63;;;1.57;;
7076;SDS011;3579;48.956;9.154;2023-09-19T15:36:02;2.13;;;1.60;;
7076;SDS011;3579;48.956;9.154;2023-09-19T15:41:23;4.07;;;1.80;;
7076;SDS011;3579;48.956;9.154;2023-09-19T15:43:50;2.07;;;1.60;;
7076;SDS011;3579;48.956;9.154;2023-09-19T15:46:16;2.73;;;1.60;;
7076;SDS011;3579;48.956;9.154;2023-09-19T15:48:42;2.83;;;1.60;;
7076;SDS011;3579;48.956;9.154;2023-09-19T15:51:09;1.67;;;1.50;;
7076;SDS011;3579;48.956;9.154;2023-09-19T15:53:43;2.37;;;1.60;;
7076;SDS011;3579;48.956;9.154;2023-09-19T15:56:11;2.07;;;1.63;;
7076;SDS011;3579;48.956;9.154;2023-09-19T15:58:43;3.03;;;1.63;;
7076;SDS011;3579;48.956;9.154;2023-09-19T16:01:36;2.57;;;1.80;;
7076;SDS011;3579;48.956;9.154;2023-09-19T16:04:03;2.47;;;1.50;;
7076;SDS011;3579;48.956;9.154;2023-09-19T16:06:30;1.87;;;1.50;;
7076;SDS011;3579;48.956;9.154;2023-09-19T16:08:57;2.77;;;1.63;;
7076;SDS011;3579;48.956;9.154;2023-09-19T16:11:25;1.60;;;1.50;;
7076;SDS011;3579;48.956;9.154;2023-09-19T16:13:53;2.00;;;1.40;;
7076;SDS011;3579;48.956;9.154;2023-09-19T16:16:20;2.03;;;1.47;;
7076;SDS011;3579;48.956;9.154;2023-09-19T16:18:54;2.03;;;1.50;;
7076;SDS011;3579;48.956;9.154;2023-09-19T16:21:23;2.30;;;1.60;;
7076;SDS011;3579;48.956;9.154;2023-09-19T16:23:52;2.13;;;1.47;;
7076;SDS011;3579;48.956;9.154;2023-09-19T16:26:21;2.03;;;1.50;;
7076;SDS011;3579;48.956;9.154;2023-09-19T16:28:49;2.57;;;1.83;;
7076;SDS011;3579;48.956;9.154;2023-09-19T16:31:16;2.03;;;1.40;;
7076;SDS011;3579;48.956;9.154;2023-09-19T16:33:46;2.07;;;1.60;;
7076;SDS011;3579;48.956;9.154;2023-09-19T16:36:13;2.63;;;1.43;;
7076;SDS011;3579;48.956;9.154;2023-09-19T16:38:41;2.07;;;1.73;;
7076;SDS011;3579;48.956;9.154;2023-09-19T16:41:08;1.90;;;1.60;;